sensor_id;sensor_type;location;lat;lon;timestamp;temperature;humidity
11925;DHT22;6022;48.768;18.608;2023-08-31T00:02:10;17.60;99.90
11925;DHT22;6022;48.768;18.608;2023-08-31T00:07:05;17.40;99.90
11925;DHT22;6022;48.768;18.608;2023-08-31T00:09:33;17.10;99.90
11925;DHT22;6022;48.768;18.608;2023-08-31T00:12:01;17.00;99.90
11925;DHT22;6022;48.768;18.608;2023-08-31T00:14:29;17.50;99.90
11925;DHT22;6022;48.768;18.608;2023-08-31T00:16:56;17.40;99.90
11925;DHT22;6022;48.768;18.608;2023-08-31T00:19:24;17.70;99.90
11925;DHT22;6022;48.768;18.608;2023-08-31T00:21:51;16.30;99.90
11925;DHT22;6022;48.768;18.608;2023-08-31T00:24:18;17.00;99.90
11925;DHT22;6022;48.768;18.608;2023-08-31T00:29:17;16.80;99.90
11925;DHT22;6022;48.768;18.608;2023-08-31T00:34:15;16.50;99.90
11925;DHT22;6022;48.768;18.608;2023-08-31T00:36:46;17.10;99.90
11925;DHT22;6022;48.768;18.608;2023-08-31T00:39:13;17.10;99.90
11925;DHT22;6022;48.768;18.608;2023-08-31T00:41:40;17.10;99.90
11925;DHT22;6022;48.768;18.608;2023-08-31T00:49:07;17.30;99.90
11925;DHT22;6022;48.768;18.608;2023-08-31T00:51:37;16.40;99.90
11925;DHT22;6022;48.768;18.608;2023-08-31T00:54:04;17.10;99.90
11925;DHT22;6022;48.768;18.608;2023-08-31T01:01:51;16.30;99.90
11925;DHT22;6022;48.768;18.608;2023-08-31T01:04:46;17.20;99.90
11925;DHT22;6022;48.768;18.608;2023-08-31T01:07:40;17.60;99.90
11925;DHT22;6022;48.768;18.608;2023-08-31T01:13:35;16.70;99.90
11925;DHT22;6022;48.768;18.608;2023-08-31T01:16:06;16.90;99.90
11925;DHT22;6022;48.768;18.608;2023-08-31T01:18:38;16.80;99.90
11925;DHT22;6022;48.768;18.608;2023-08-31T01:24:04;17.50;99.90
11925;DHT22;6022;48.768;18.608;2023-08-31T01:26:32;16.80;99.90
11925;DHT22;6022;48.768;18.608;2023-08-31T01:29:00;16.60;99.90
11925;DHT22;6022;48.768;18.608;2023-08-31T01:31:27;17.50;99.90
11925;DHT22;6022;48.768;18.608;2023-08-31T01:33:56;16.60;99.90
11925;DHT22;6022;48.768;18.608;2023-08-31T01:36:30;16.70;99.90
11925;DHT22;6022;48.768;18.608;2023-08-31T01:39:14;16.40;99.90
11925;DHT22;6022;48.768;18.608;2023-08-31T01:41:50;16.70;99.90
11925;DHT22;6022;48.768;18.608;2023-08-31T01:44:22;17.30;99.90
11925;DHT22;6022;48.768;18.608;2023-08-31T01:46:52;16.40;99.90
11925;DHT22;6022;48.768;18.608;2023-08-31T01:49:23;16.50;99.90
11925;DHT22;6022;48.768;18.608;2023-08-31T01:51:51;16.50;99.90
11925;DHT22;6022;48.768;18.608;2023-08-31T01:54:18;16.90;99.90
11925;DHT22;6022;48.768;18.608;2023-08-31T01:56:45;16.80;99.90
11925;DHT22;6022;48.768;18.608;2023-08-31T01:59:12;16.90;99.90
11925;DHT22;6022;48.768;18.608;2023-08-31T02:01:39;16.90;99.90
11925;DHT22;6022;48.768;18.608;2023-08-31T02:04:06;16.40;99.90
11925;DHT22;6022;48.768;18.608;2023-08-31T02:06:33;17.30;99.90
11925;DHT22;6022;48.768;18.608;2023-08-31T02:09:00;16.40;99.90
11925;DHT22;6022;48.768;18.608;2023-08-31T02:11:27;16.90;99.90
11925;DHT22;6022;48.768;18.608;2023-08-31T02:13:54;16.50;99.90
11925;DHT22;6022;48.768;18.608;2023-08-31T02:16:21;17.00;99.90
11925;DHT22;6022;48.768;18.608;2023-08-31T02:18:49;16.60;99.90
11925;DHT22;6022;48.768;18.608;2023-08-31T02:21:16;16.60;99.90
11925;DHT22;6022;48.768;18.608;2023-08-31T02:23:46;16.30;99.90
11925;DHT22;6022;48.768;18.608;2023-08-31T02:26:13;16.60;99.90
11925;DHT22;6022;48.768;18.608;2023-08-31T02:28:40;16.40;99.90
11925;DHT22;6022;48.768;18.608;2023-08-31T02:31:10;17.00;99.90
11925;DHT22;6022;48.768;18.608;2023-08-31T02:33:40;16.60;99.90
11925;DHT22;6022;48.768;18.608;2023-08-31T02:36:11;16.50;99.90
11925;DHT22;6022;48.768;18.608;2023-08-31T02:38:38;17.20;99.90
11925;DHT22;6022;48.768;18.608;2023-08-31T02:41:05;16.30;99.90
11925;DHT22;6022;48.768;18.608;2023-08-31T02:43:32;16.70;99.90
11925;DHT22;6022;48.768;18.608;2023-08-31T02:46:00;16.00;99.90
11925;DHT22;6022;48.768;18.608;2023-08-31T02:48:32;16.30;99.90
11925;DHT22;6022;48.768;18.608;2023-08-31T02:51:00;16.50;99.90
11925;DHT22;6022;48.768;18.608;2023-08-31T02:53:31;16.40;99.90
11925;DHT22;6022;48.768;18.608;2023-08-31T02:58:28;16.40;99.90
11925;DHT22;6022;48.768;18.608;2023-08-31T03:00:55;16.40;99.90
11925;DHT22;6022;48.768;18.608;2023-08-31T03:03:22;17.00;99.90
11925;DHT22;6022;48.768;18.608;2023-08-31T03:05:55;16.40;99.90
11925;DHT22;6022;48.768;18.608;2023-08-31T03:08:23;17.10;99.90
11925;DHT22;6022;48.768;18.608;2023-08-31T03:10:50;16.30;99.90
11925;DHT22;6022;48.768;18.608;2023-08-31T03:13:17;16.10;99.90
11925;DHT22;6022;48.768;18.608;2023-08-31T03:15:45;17.00;99.90
11925;DHT22;6022;48.768;18.608;2023-08-31T03:18:12;15.90;99.90
11925;DHT22;6022;48.768;18.608;2023-08-31T03:20:39;16.20;99.90
11925;DHT22;6022;48.768;18.608;2023-08-31T03:23:06;16.50;99.90
11925;DHT22;6022;48.768;18.608;2023-08-31T03:28:04;16.70;99.90
11925;DHT22;6022;48.768;18.608;2023-08-31T03:35:29;16.30;99.90
11925;DHT22;6022;48.768;18.608;2023-08-31T03:40:24;16.30;99.90
11925;DHT22;6022;48.768;18.608;2023-08-31T03:42:51;16.50;99.90
11925;DHT22;6022;48.768;18.608;2023-08-31T03:45:19;16.00;99.90
11925;DHT22;6022;48.768;18.608;2023-08-31T03:47:47;16.50;99.90
11925;DHT22;6022;48.768;18.608;2023-08-31T03:50:14;16.40;99.90
11925;DHT22;6022;48.768;18.608;2023-08-31T03:55:29;15.80;99.90
11925;DHT22;6022;48.768;18.608;2023-08-31T03:57:56;17.10;99.90
11925;DHT22;6022;48.768;18.608;2023-08-31T04:00:25;15.90;99.90
11925;DHT22;6022;48.768;18.608;2023-08-31T04:02:52;15.70;99.90
11925;DHT22;6022;48.768;18.608;2023-08-31T04:07:48;15.70;99.90
11925;DHT22;6022;48.768;18.608;2023-08-31T04:17:43;16.20;99.90
11925;DHT22;6022;48.768;18.608;2023-08-31T04:22:39;16.60;99.90
11925;DHT22;6022;48.768;18.608;2023-08-31T04:25:06;16.70;99.90
11925;DHT22;6022;48.768;18.608;2023-08-31T04:27:34;15.80;99.90
11925;DHT22;6022;48.768;18.608;2023-08-31T04:30:02;16.70;99.90
11925;DHT22;6022;48.768;18.608;2023-08-31T04:32:29;15.90;99.90
11925;DHT22;6022;48.768;18.608;2023-08-31T04:34:57;16.40;99.90
11925;DHT22;6022;48.768;18.608;2023-08-31T04:37:24;16.60;99.90
11925;DHT22;6022;48.768;18.608;2023-08-31T04:39:51;17.00;99.90
11925;DHT22;6022;48.768;18.608;2023-08-31T04:42:22;16.10;99.90
11925;DHT22;6022;48.768;18.608;2023-08-31T04:44:50;16.10;99.90
11925;DHT22;6022;48.768;18.608;2023-08-31T04:47:17;16.60;99.90
11925;DHT22;6022;48.768;18.608;2023-08-31T04:49:45;17.00;99.90
11925;DHT22;6022;48.768;18.608;2023-08-31T04:54:40;16.60;99.90
11925;DHT22;6022;48.768;18.608;2023-08-31T04:59:35;16.10;99.90
11925;DHT22;6022;48.768;18.608;2023-08-31T05:02:02;16.80;99.90
11925;DHT22;6022;48.768;18.608;2023-08-31T05:04:39;17.00;99.90
11925;DHT22;6022;48.768;18.608;2023-08-31T05:09:51;17.20;99.90
11925;DHT22;6022;48.768;18.608;2023-08-31T05:12:19;16.80;99.90
11925;DHT22;6022;48.768;18.608;2023-08-31T05:17:17;16.80;99.90
11925;DHT22;6022;48.768;18.608;2023-08-31T05:19:47;17.40;99.90
11925;DHT22;6022;48.768;18.608;2023-08-31T05:22:15;17.80;99.90
11925;DHT22;6022;48.768;18.608;2023-08-31T05:24:42;16.80;99.90
11925;DHT22;6022;48.768;18.608;2023-08-31T05:27:10;17.70;99.90
11925;DHT22;6022;48.768;18.608;2023-08-31T05:29:37;17.60;99.90
11925;DHT22;6022;48.768;18.608;2023-08-31T05:32:04;17.60;99.90
11925;DHT22;6022;48.768;18.608;2023-08-31T05:34:32;17.70;99.90
11925;DHT22;6022;48.768;18.608;2023-08-31T05:37:04;17.70;99.90
11925;DHT22;6022;48.768;18.608;2023-08-31T05:39:32;17.90;99.90
11925;DHT22;6022;48.768;18.608;2023-08-31T05:41:59;17.90;99.90
11925;DHT22;6022;48.768;18.608;2023-08-31T05:46:57;19.70;99.90
11925;DHT22;6022;48.768;18.608;2023-08-31T05:49:24;19.90;99.90
11925;DHT22;6022;48.768;18.608;2023-08-31T05:51:51;19.80;99.90
11925;DHT22;6022;48.768;18.608;2023-08-31T05:54:18;19.50;99.90
11925;DHT22;6022;48.768;18.608;2023-08-31T05:56:45;20.00;99.90
11925;DHT22;6022;48.768;18.608;2023-08-31T05:59:14;19.50;99.90
11925;DHT22;6022;48.768;18.608;2023-08-31T06:01:43;20.70;99.90
11925;DHT22;6022;48.768;18.608;2023-08-31T06:04:12;20.80;99.90
11925;DHT22;6022;48.768;18.608;2023-08-31T06:06:39;20.60;99.90
11925;DHT22;6022;48.768;18.608;2023-08-31T06:09:07;21.10;99.90
11925;DHT22;6022;48.768;18.608;2023-08-31T06:11:34;20.70;99.90
11925;DHT22;6022;48.768;18.608;2023-08-31T06:14:04;20.10;99.90
11925;DHT22;6022;48.768;18.608;2023-08-31T06:16:31;19.90;99.90
11925;DHT22;6022;48.768;18.608;2023-08-31T06:18:59;20.60;99.90
11925;DHT22;6022;48.768;18.608;2023-08-31T06:21:26;20.70;99.90
11925;DHT22;6022;48.768;18.608;2023-08-31T06:26:24;20.20;99.90
11925;DHT22;6022;48.768;18.608;2023-08-31T06:28:54;20.10;99.90
11925;DHT22;6022;48.768;18.608;2023-08-31T06:31:21;20.40;99.90
11925;DHT22;6022;48.768;18.608;2023-08-31T06:33:48;20.40;99.90
11925;DHT22;6022;48.768;18.608;2023-08-31T06:38:44;22.20;99.90
11925;DHT22;6022;48.768;18.608;2023-08-31T06:41:11;22.30;99.90
11925;DHT22;6022;48.768;18.608;2023-08-31T06:43:49;23.60;99.90
11925;DHT22;6022;48.768;18.608;2023-08-31T06:47:03;24.60;99.90
11925;DHT22;6022;48.768;18.608;2023-08-31T06:49:33;24.00;99.90
11925;DHT22;6022;48.768;18.608;2023-08-31T06:52:11;24.30;99.90
11925;DHT22;6022;48.768;18.608;2023-08-31T06:54:58;24.60;99.90
11925;DHT22;6022;48.768;18.608;2023-08-31T06:57:27;23.70;99.90
11925;DHT22;6022;48.768;18.608;2023-08-31T07:00:00;23.60;99.90
11925;DHT22;6022;48.768;18.608;2023-08-31T07:02:28;23.30;99.90
11925;DHT22;6022;48.768;18.608;2023-08-31T07:04:55;22.90;99.90
11925;DHT22;6022;48.768;18.608;2023-08-31T07:17:13;21.00;99.90
11925;DHT22;6022;48.768;18.608;2023-08-31T07:19:40;21.10;99.90
11925;DHT22;6022;48.768;18.608;2023-08-31T07:27:03;21.60;99.90
11925;DHT22;6022;48.768;18.608;2023-08-31T07:29:31;21.30;99.90
11925;DHT22;6022;48.768;18.608;2023-08-31T07:31:58;21.10;99.90
11925;DHT22;6022;48.768;18.608;2023-08-31T07:34:25;20.50;99.90
11925;DHT22;6022;48.768;18.608;2023-08-31T07:36:53;21.70;99.90
11925;DHT22;6022;48.768;18.608;2023-08-31T07:39:20;21.90;99.90
11925;DHT22;6022;48.768;18.608;2023-08-31T07:41:48;23.30;99.90
11925;DHT22;6022;48.768;18.608;2023-08-31T07:44:17;25.50;99.90
11925;DHT22;6022;48.768;18.608;2023-08-31T07:46:45;26.40;99.90
11925;DHT22;6022;48.768;18.608;2023-08-31T07:49:12;27.70;99.90
11925;DHT22;6022;48.768;18.608;2023-08-31T07:51:39;27.60;99.90
11925;DHT22;6022;48.768;18.608;2023-08-31T07:54:06;28.10;99.90
11925;DHT22;6022;48.768;18.608;2023-08-31T07:56:34;28.70;99.90
11925;DHT22;6022;48.768;18.608;2023-08-31T07:59:01;28.80;99.90
11925;DHT22;6022;48.768;18.608;2023-08-31T08:01:28;28.70;99.90
11925;DHT22;6022;48.768;18.608;2023-08-31T08:03:56;28.30;98.60
11925;DHT22;6022;48.768;18.608;2023-08-31T08:06:23;27.00;99.90
11925;DHT22;6022;48.768;18.608;2023-08-31T08:08:50;26.20;99.90
11925;DHT22;6022;48.768;18.608;2023-08-31T08:11:17;27.10;99.90
11925;DHT22;6022;48.768;18.608;2023-08-31T08:13:44;27.90;99.90
11925;DHT22;6022;48.768;18.608;2023-08-31T08:16:11;28.20;99.90
11925;DHT22;6022;48.768;18.608;2023-08-31T08:18:39;28.30;99.90
11925;DHT22;6022;48.768;18.608;2023-08-31T08:21:07;28.10;99.90
11925;DHT22;6022;48.768;18.608;2023-08-31T08:23:34;27.90;99.90
11925;DHT22;6022;48.768;18.608;2023-08-31T08:26:01;27.70;99.50
11925;DHT22;6022;48.768;18.608;2023-08-31T08:28:28;27.30;99.90
11925;DHT22;6022;48.768;18.608;2023-08-31T08:30:55;26.80;99.90
11925;DHT22;6022;48.768;18.608;2023-08-31T08:33:22;26.20;99.90
11925;DHT22;6022;48.768;18.608;2023-08-31T08:35:50;26.20;99.90
11925;DHT22;6022;48.768;18.608;2023-08-31T08:38:25;27.00;99.90
11925;DHT22;6022;48.768;18.608;2023-08-31T08:40:52;26.10;99.90
11925;DHT22;6022;48.768;18.608;2023-08-31T08:43:24;26.20;99.90
11925;DHT22;6022;48.768;18.608;2023-08-31T08:45:54;26.00;99.90
11925;DHT22;6022;48.768;18.608;2023-08-31T08:48:33;27.20;99.90
11925;DHT22;6022;48.768;18.608;2023-08-31T08:51:02;27.90;99.90
11925;DHT22;6022;48.768;18.608;2023-08-31T08:53:30;27.70;99.90
11925;DHT22;6022;48.768;18.608;2023-08-31T08:55:58;27.60;99.90
11925;DHT22;6022;48.768;18.608;2023-08-31T08:58:25;27.60;99.90
11925;DHT22;6022;48.768;18.608;2023-08-31T09:00:54;27.70;99.90
11925;DHT22;6022;48.768;18.608;2023-08-31T09:03:25;27.60;99.90
11925;DHT22;6022;48.768;18.608;2023-08-31T09:05:52;27.70;99.90
11925;DHT22;6022;48.768;18.608;2023-08-31T09:08:26;27.90;99.70
11925;DHT22;6022;48.768;18.608;2023-08-31T09:10:56;27.50;98.40
11925;DHT22;6022;48.768;18.608;2023-08-31T09:13:30;26.30;99.90
11925;DHT22;6022;48.768;18.608;2023-08-31T09:15:57;25.70;99.90
11925;DHT22;6022;48.768;18.608;2023-08-31T09:18:31;25.30;99.90
11925;DHT22;6022;48.768;18.608;2023-08-31T09:21:00;24.90;99.90
11925;DHT22;6022;48.768;18.608;2023-08-31T09:23:28;24.70;99.90
11925;DHT22;6022;48.768;18.608;2023-08-31T09:25:56;24.50;99.90
11925;DHT22;6022;48.768;18.608;2023-08-31T09:28:26;25.00;99.90
11925;DHT22;6022;48.768;18.608;2023-08-31T09:31:06;25.10;99.90
11925;DHT22;6022;48.768;18.608;2023-08-31T09:33:35;26.80;99.90
11925;DHT22;6022;48.768;18.608;2023-08-31T09:36:07;26.90;99.90
11925;DHT22;6022;48.768;18.608;2023-08-31T09:38:42;27.20;99.90
11925;DHT22;6022;48.768;18.608;2023-08-31T09:41:13;27.40;99.90
11925;DHT22;6022;48.768;18.608;2023-08-31T09:43:42;28.10;98.40
11925;DHT22;6022;48.768;18.608;2023-08-31T09:46:10;27.50;98.40
11925;DHT22;6022;48.768;18.608;2023-08-31T09:48:42;27.80;99.10
11925;DHT22;6022;48.768;18.608;2023-08-31T09:51:10;27.60;99.90
11925;DHT22;6022;48.768;18.608;2023-08-31T09:53:38;28.30;98.20
11925;DHT22;6022;48.768;18.608;2023-08-31T09:56:07;29.10;93.80
11925;DHT22;6022;48.768;18.608;2023-08-31T09:58:38;28.40;94.00
11925;DHT22;6022;48.768;18.608;2023-08-31T10:01:06;28.30;94.00
11925;DHT22;6022;48.768;18.608;2023-08-31T10:03:50;28.40;93.70
11925;DHT22;6022;48.768;18.608;2023-08-31T10:06:18;27.50;92.70
11925;DHT22;6022;48.768;18.608;2023-08-31T10:08:52;27.10;95.40
11925;DHT22;6022;48.768;18.608;2023-08-31T10:11:21;26.20;94.10
11925;DHT22;6022;48.768;18.608;2023-08-31T10:13:49;26.50;96.00
11925;DHT22;6022;48.768;18.608;2023-08-31T10:16:17;26.50;96.40
11925;DHT22;6022;48.768;18.608;2023-08-31T10:18:46;26.70;97.00
11925;DHT22;6022;48.768;18.608;2023-08-31T10:21:18;26.60;95.00
11925;DHT22;6022;48.768;18.608;2023-08-31T10:23:49;26.40;96.30
11925;DHT22;6022;48.768;18.608;2023-08-31T10:26:30;26.80;97.60
11925;DHT22;6022;48.768;18.608;2023-08-31T10:28:59;28.00;95.00
11925;DHT22;6022;48.768;18.608;2023-08-31T10:31:31;28.00;93.60
11925;DHT22;6022;48.768;18.608;2023-08-31T10:34:05;29.10;92.70
11925;DHT22;6022;48.768;18.608;2023-08-31T10:36:39;29.00;92.00
11925;DHT22;6022;48.768;18.608;2023-08-31T10:39:12;28.60;91.60
11925;DHT22;6022;48.768;18.608;2023-08-31T10:41:57;29.10;90.70
11925;DHT22;6022;48.768;18.608;2023-08-31T10:44:30;29.50;89.00
11925;DHT22;6022;48.768;18.608;2023-08-31T10:47:07;29.90;85.30
11925;DHT22;6022;48.768;18.608;2023-08-31T10:49:35;29.60;83.60
11925;DHT22;6022;48.768;18.608;2023-08-31T10:52:19;29.50;86.00
11925;DHT22;6022;48.768;18.608;2023-08-31T10:54:55;29.30;80.90
11925;DHT22;6022;48.768;18.608;2023-08-31T10:57:35;29.70;79.20
11925;DHT22;6022;48.768;18.608;2023-08-31T11:00:05;29.80;77.10
11925;DHT22;6022;48.768;18.608;2023-08-31T11:02:42;29.60;75.50
11925;DHT22;6022;48.768;18.608;2023-08-31T11:05:13;29.40;74.50
11925;DHT22;6022;48.768;18.608;2023-08-31T11:07:48;29.50;75.00
11925;DHT22;6022;48.768;18.608;2023-08-31T11:10:31;29.40;76.60
11925;DHT22;6022;48.768;18.608;2023-08-31T11:12:58;28.80;74.10
11925;DHT22;6022;48.768;18.608;2023-08-31T11:15:27;29.10;75.10
11925;DHT22;6022;48.768;18.608;2023-08-31T11:17:57;27.80;74.80
11925;DHT22;6022;48.768;18.608;2023-08-31T11:20:25;27.80;78.60
11925;DHT22;6022;48.768;18.608;2023-08-31T11:22:56;27.10;78.60
11925;DHT22;6022;48.768;18.608;2023-08-31T11:25:23;27.10;81.90
11925;DHT22;6022;48.768;18.608;2023-08-31T11:27:59;26.70;82.20
11925;DHT22;6022;48.768;18.608;2023-08-31T11:30:29;26.60;83.80
11925;DHT22;6022;48.768;18.608;2023-08-31T11:33:05;27.10;83.00
11925;DHT22;6022;48.768;18.608;2023-08-31T11:35:37;26.80;83.10
11925;DHT22;6022;48.768;18.608;2023-08-31T11:38:07;28.00;83.30
11925;DHT22;6022;48.768;18.608;2023-08-31T11:40:35;28.30;84.70
11925;DHT22;6022;48.768;18.608;2023-08-31T11:43:04;27.80;79.50
11925;DHT22;6022;48.768;18.608;2023-08-31T11:45:34;28.10;80.00
11925;DHT22;6022;48.768;18.608;2023-08-31T11:48:05;27.80;78.30
11925;DHT22;6022;48.768;18.608;2023-08-31T11:50:33;27.60;77.50
11925;DHT22;6022;48.768;18.608;2023-08-31T11:53:01;27.70;77.80
11925;DHT22;6022;48.768;18.608;2023-08-31T11:55:29;28.80;86.00
11925;DHT22;6022;48.768;18.608;2023-08-31T11:57:56;27.30;78.60
11925;DHT22;6022;48.768;18.608;2023-08-31T12:00:23;27.70;82.70
11925;DHT22;6022;48.768;18.608;2023-08-31T12:05:27;27.60;81.60
11925;DHT22;6022;48.768;18.608;2023-08-31T12:07:55;27.70;84.30
11925;DHT22;6022;48.768;18.608;2023-08-31T12:10:26;26.80;84.80
11925;DHT22;6022;48.768;18.608;2023-08-31T12:12:54;26.90;87.10
11925;DHT22;6022;48.768;18.608;2023-08-31T12:15:34;26.90;85.90
11925;DHT22;6022;48.768;18.608;2023-08-31T12:18:11;27.80;83.00
11925;DHT22;6022;48.768;18.608;2023-08-31T12:20:50;27.00;84.80
11925;DHT22;6022;48.768;18.608;2023-08-31T12:23:19;26.90;81.60
11925;DHT22;6022;48.768;18.608;2023-08-31T12:25:49;27.70;82.60
11925;DHT22;6022;48.768;18.608;2023-08-31T12:28:18;27.80;81.50
11925;DHT22;6022;48.768;18.608;2023-08-31T12:30:51;26.90;84.30
11925;DHT22;6022;48.768;18.608;2023-08-31T12:33:20;28.00;86.00
11925;DHT22;6022;48.768;18.608;2023-08-31T12:35:48;28.10;84.70
11925;DHT22;6022;48.768;18.608;2023-08-31T12:38:16;28.10;80.30
11925;DHT22;6022;48.768;18.608;2023-08-31T12:40:43;28.50;78.20
11925;DHT22;6022;48.768;18.608;2023-08-31T12:43:12;27.50;77.50
11925;DHT22;6022;48.768;18.608;2023-08-31T12:45:40;26.70;80.00
11925;DHT22;6022;48.768;18.608;2023-08-31T12:50:35;26.50;81.50
11925;DHT22;6022;48.768;18.608;2023-08-31T12:53:02;26.20;84.30
11925;DHT22;6022;48.768;18.608;2023-08-31T12:55:30;26.20;84.40
11925;DHT22;6022;48.768;18.608;2023-08-31T12:57:57;25.80;85.10
11925;DHT22;6022;48.768;18.608;2023-08-31T13:00:26;26.20;89.60
11925;DHT22;6022;48.768;18.608;2023-08-31T13:02:53;26.00;89.90
11925;DHT22;6022;48.768;18.608;2023-08-31T13:05:21;26.30;89.70
11925;DHT22;6022;48.768;18.608;2023-08-31T13:07:49;26.70;90.00
11925;DHT22;6022;48.768;18.608;2023-08-31T13:10:18;26.70;85.20
11925;DHT22;6022;48.768;18.608;2023-08-31T13:12:45;26.30;88.80
11925;DHT22;6022;48.768;18.608;2023-08-31T13:15:12;26.10;89.00
11925;DHT22;6022;48.768;18.608;2023-08-31T13:17:40;25.70;91.10
11925;DHT22;6022;48.768;18.608;2023-08-31T13:20:08;25.70;90.20
11925;DHT22;6022;48.768;18.608;2023-08-31T13:22:35;25.40;92.00
11925;DHT22;6022;48.768;18.608;2023-08-31T13:25:02;24.90;91.20
11925;DHT22;6022;48.768;18.608;2023-08-31T13:27:32;26.10;92.60
11925;DHT22;6022;48.768;18.608;2023-08-31T13:30:02;26.30;91.80
11925;DHT22;6022;48.768;18.608;2023-08-31T13:32:33;25.80;92.10
11925;DHT22;6022;48.768;18.608;2023-08-31T13:37:29;26.00;92.30
11925;DHT22;6022;48.768;18.608;2023-08-31T13:47:19;25.90;94.40
11925;DHT22;6022;48.768;18.608;2023-08-31T13:57:14;25.80;94.70
11925;DHT22;6022;48.768;18.608;2023-08-31T14:04:40;24.60;94.00
11925;DHT22;6022;48.768;18.608;2023-08-31T14:19:36;24.60;92.50
11925;DHT22;6022;48.768;18.608;2023-08-31T14:22:03;24.00;93.00
11925;DHT22;6022;48.768;18.608;2023-08-31T14:24:30;24.20;94.00
11925;DHT22;6022;48.768;18.608;2023-08-31T14:34:22;24.50;91.80
11925;DHT22;6022;48.768;18.608;2023-08-31T14:36:51;24.50;91.80
11925;DHT22;6022;48.768;18.608;2023-08-31T14:44:16;24.50;92.00
11925;DHT22;6022;48.768;18.608;2023-08-31T14:46:43;24.20;91.60
11925;DHT22;6022;48.768;18.608;2023-08-31T14:49:11;24.20;92.40
11925;DHT22;6022;48.768;18.608;2023-08-31T14:54:05;24.10;92.10
11925;DHT22;6022;48.768;18.608;2023-08-31T14:59:00;24.20;92.40
11925;DHT22;6022;48.768;18.608;2023-08-31T15:01:28;23.90;91.80
11925;DHT22;6022;48.768;18.608;2023-08-31T15:09:14;23.90;90.90
11925;DHT22;6022;48.768;18.608;2023-08-31T15:24:05;24.00;84.70
11925;DHT22;6022;48.768;18.608;2023-08-31T15:26:32;23.10;85.30
11925;DHT22;6022;48.768;18.608;2023-08-31T15:31:27;23.20;86.70
11925;DHT22;6022;48.768;18.608;2023-08-31T15:48:54;23.20;83.20
11925;DHT22;6022;48.768;18.608;2023-08-31T15:51:21;23.20;81.90
11925;DHT22;6022;48.768;18.608;2023-08-31T15:53:49;23.60;83.00
11925;DHT22;6022;48.768;18.608;2023-08-31T15:56:16;23.10;85.20
11925;DHT22;6022;48.768;18.608;2023-08-31T16:16:11;22.90;91.60
11925;DHT22;6022;48.768;18.608;2023-08-31T16:18:40;22.50;92.70
11925;DHT22;6022;48.768;18.608;2023-08-31T16:23:37;23.00;92.50
11925;DHT22;6022;48.768;18.608;2023-08-31T16:35:59;23.70;92.90
11925;DHT22;6022;48.768;18.608;2023-08-31T16:45:51;23.20;91.20
11925;DHT22;6022;48.768;18.608;2023-08-31T17:08:05;22.30;97.30
11925;DHT22;6022;48.768;18.608;2023-08-31T17:10:32;21.60;98.70
11925;DHT22;6022;48.768;18.608;2023-08-31T17:25:26;20.90;99.90
11925;DHT22;6022;48.768;18.608;2023-08-31T17:35:16;20.50;99.90
11925;DHT22;6022;48.768;18.608;2023-08-31T17:37:44;21.30;99.90
11925;DHT22;6022;48.768;18.608;2023-08-31T17:45:09;20.30;99.90
11925;DHT22;6022;48.768;18.608;2023-08-31T17:55:04;19.80;99.90
11925;DHT22;6022;48.768;18.608;2023-08-31T18:00:00;20.60;99.90
11925;DHT22;6022;48.768;18.608;2023-08-31T18:02:30;20.50;99.90
11925;DHT22;6022;48.768;18.608;2023-08-31T18:07:26;19.40;99.90
11925;DHT22;6022;48.768;18.608;2023-08-31T18:09:53;20.20;99.90
11925;DHT22;6022;48.768;18.608;2023-08-31T18:12:21;20.20;99.90
11925;DHT22;6022;48.768;18.608;2023-08-31T18:14:48;19.20;99.90
11925;DHT22;6022;48.768;18.608;2023-08-31T18:19:43;20.00;99.90
11925;DHT22;6022;48.768;18.608;2023-08-31T18:22:10;19.00;99.90
11925;DHT22;6022;48.768;18.608;2023-08-31T18:27:05;19.70;99.90
11925;DHT22;6022;48.768;18.608;2023-08-31T18:29:37;19.20;99.90
11925;DHT22;6022;48.768;18.608;2023-08-31T18:37:30;19.00;99.90
11925;DHT22;6022;48.768;18.608;2023-08-31T18:40:09;19.00;99.90
11925;DHT22;6022;48.768;18.608;2023-08-31T18:42:48;19.00;99.90
11925;DHT22;6022;48.768;18.608;2023-08-31T18:45:20;19.00;99.90
11925;DHT22;6022;48.768;18.608;2023-08-31T18:47:48;19.20;99.90
11925;DHT22;6022;48.768;18.608;2023-08-31T18:50:15;18.30;99.90
11925;DHT22;6022;48.768;18.608;2023-08-31T18:52:48;18.40;99.90
11925;DHT22;6022;48.768;18.608;2023-08-31T18:55:15;18.50;99.90
11925;DHT22;6022;48.768;18.608;2023-08-31T18:57:43;18.40;99.90
11925;DHT22;6022;48.768;18.608;2023-08-31T19:00:11;18.70;99.90
11925;DHT22;6022;48.768;18.608;2023-08-31T19:02:42;18.40;99.90
11925;DHT22;6022;48.768;18.608;2023-08-31T19:05:12;18.20;99.90
11925;DHT22;6022;48.768;18.608;2023-08-31T19:07:40;18.20;99.90
11925;DHT22;6022;48.768;18.608;2023-08-31T19:10:08;18.30;99.90
11925;DHT22;6022;48.768;18.608;2023-08-31T19:15:06;18.40;99.90
11925;DHT22;6022;48.768;18.608;2023-08-31T19:20:01;18.30;99.90
11925;DHT22;6022;48.768;18.608;2023-08-31T19:22:30;18.00;99.90
11925;DHT22;6022;48.768;18.608;2023-08-31T19:24:57;18.00;99.90
11925;DHT22;6022;48.768;18.608;2023-08-31T19:29:51;18.20;99.90
11925;DHT22;6022;48.768;18.608;2023-08-31T19:32:20;18.00;99.90
11925;DHT22;6022;48.768;18.608;2023-08-31T19:34:47;17.90;99.90
11925;DHT22;6022;48.768;18.608;2023-08-31T19:37:14;18.00;99.90
11925;DHT22;6022;48.768;18.608;2023-08-31T19:39:41;17.90;99.90
11925;DHT22;6022;48.768;18.608;2023-08-31T19:42:08;17.80;99.90
11925;DHT22;6022;48.768;18.608;2023-08-31T19:44:35;17.70;99.90
11925;DHT22;6022;48.768;18.608;2023-08-31T19:47:02;17.40;99.90
11925;DHT22;6022;48.768;18.608;2023-08-31T19:49:40;17.40;99.90
11925;DHT22;6022;48.768;18.608;2023-08-31T19:52:07;17.10;99.90
11925;DHT22;6022;48.768;18.608;2023-08-31T19:54:34;17.00;99.90
11925;DHT22;6022;48.768;18.608;2023-08-31T19:59:29;17.10;99.90
11925;DHT22;6022;48.768;18.608;2023-08-31T20:01:56;17.20;99.90
11925;DHT22;6022;48.768;18.608;2023-08-31T20:04:23;17.30;99.90
11925;DHT22;6022;48.768;18.608;2023-08-31T20:06:50;17.20;99.90
11925;DHT22;6022;48.768;18.608;2023-08-31T20:09:18;17.40;99.90
11925;DHT22;6022;48.768;18.608;2023-08-31T20:11:46;16.80;99.90
11925;DHT22;6022;48.768;18.608;2023-08-31T20:14:13;16.70;99.90
11925;DHT22;6022;48.768;18.608;2023-08-31T20:16:41;16.80;99.90
11925;DHT22;6022;48.768;18.608;2023-08-31T20:19:08;16.80;99.90
11925;DHT22;6022;48.768;18.608;2023-08-31T20:21:35;17.20;99.90
11925;DHT22;6022;48.768;18.608;2023-08-31T20:24:03;17.00;99.90
11925;DHT22;6022;48.768;18.608;2023-08-31T20:26:30;15.90;99.90
11925;DHT22;6022;48.768;18.608;2023-08-31T20:28:57;16.20;99.90
11925;DHT22;6022;48.768;18.608;2023-08-31T20:33:52;16.90;99.90
11925;DHT22;6022;48.768;18.608;2023-08-31T20:36:19;16.90;99.90